Time;durP1;ratioP1;P1;durP2;ratioP2;P2;SDS_P1;SDS_P2;PMS_P1;PMS_P2;Temp;Humidity;BMP_temperature;BMP_pressure;BME280_temperature;BME280_humidity;BME280_pressure;Samples;Min_cycle;Max_cycle;Signal;HPM_P1;HPM_P2
2022/12/16 00:00:00;;;;;;;11.47;10.63;;;;;;;-0.63;63.11;100850.84;5007084;28;20101;-73
2022/12/16 00:02:25;;;;;;;16.27;14.67;;;;;;;-0.64;63.29;100855.31;5010289;28;20041;-74
2022/12/16 00:04:50;;;;;;;18.07;15.87;;;;;;;-0.63;63.30;100861.44;5024706;28;20094;-73
2022/12/16 00:07:16;;;;;;;16.80;15.07;;;;;;;-0.63;63.03;100869.41;5001159;28;20549;-73
2022/12/16 00:09:41;;;;;;;21.97;16.67;;;;;;;-0.64;63.14;100862.47;5008111;28;20030;-75
2022/12/16 00:12:07;;;;;;;19.73;14.07;;;;;;;-0.64;63.31;100860.63;5012423;28;20053;-74
2022/12/16 00:14:32;;;;;;;18.37;13.53;;;;;;;-0.63;63.11;100866.75;5011148;28;20125;-74
2022/12/16 00:16:58;;;;;;;15.43;11.47;;;;;;;-0.63;63.10;100861.44;5008997;28;20030;-76
2022/12/16 00:19:23;;;;;;;16.47;14.77;;;;;;;-0.63;62.90;100866.75;4996054;28;20038;-73
2022/12/16 00:21:48;;;;;;;14.07;12.43;;;;;;;-0.64;63.40;100862.47;5004823;28;20065;-75
2022/12/16 00:24:14;;;;;;;14.17;12.87;;;;;;;-0.64;62.94;100865.13;5004916;28;20038;-74
2022/12/16 00:26:39;;;;;;;12.60;11.60;;;;;;;-0.64;62.69;100876.53;4999808;28;20042;-74
2022/12/16 00:29:05;;;;;;;12.17;11.13;;;;;;;-0.63;62.95;100874.72;4998979;28;20112;-74
2022/12/16 00:31:30;;;;;;;17.53;15.77;;;;;;;-0.64;63.22;100868.59;5006170;28;20151;-75
2022/12/16 00:33:57;;;;;;;15.50;13.47;;;;;;;-0.64;63.00;100868.59;5011533;28;20038;-75
2022/12/16 00:36:22;;;;;;;17.70;14.23;;;;;;;-0.64;63.30;100873.91;5010234;28;20093;-73
2022/12/16 00:38:50;;;;;;;17.73;13.87;;;;;;;-0.64;63.30;100868.59;5003295;28;20491;-73
2022/12/16 00:41:16;;;;;;;19.27;13.90;;;;;;;-0.64;63.23;100871.25;5000989;28;20037;-74
2022/12/16 00:43:41;;;;;;;18.87;14.23;;;;;;;-0.64;63.28;100875.72;4992965;28;20034;-73
2022/12/16 00:46:07;;;;;;;36.30;16.87;;;;;;;-0.63;62.94;100875.56;4996612;28;20467;-74
2022/12/16 00:48:32;;;;;;;21.00;15.73;;;;;;;-0.63;62.93;100872.91;5007004;28;20064;-73
2022/12/16 00:50:58;;;;;;;11.00;9.90;;;;;;;-0.63;63.07;100875.56;5006396;28;20042;-73
2022/12/16 00:53:24;;;;;;;15.67;13.60;;;;;;;-0.63;63.21;100883.53;5009552;28;20565;-73
2022/12/16 00:55:49;;;;;;;18.20;13.53;;;;;;;-0.63;63.23;100874.72;4993758;28;20398;-73
2022/12/16 00:58:15;;;;;;;18.50;13.90;;;;;;;-0.63;62.91;100882.69;4994903;28;20486;-72
2022/12/16 01:00:41;;;;;;;22.50;16.90;;;;;;;-0.62;62.99;100895.78;4991289;28;20641;-74
2022/12/16 01:03:07;;;;;;;12.43;11.43;;;;;;;-0.62;63.13;100900.28;5001952;28;20501;-73
2022/12/16 01:05:32;;;;;;;22.83;14.17;;;;;;;-0.62;63.16;100892.31;4997956;28;20061;-75
2022/12/16 01:07:58;;;;;;;14.53;13.37;;;;;;;-0.62;62.87;100889.66;5008290;28;20042;-73
2022/12/16 01:10:24;;;;;;;15.23;13.27;;;;;;;-0.62;63.06;100894.97;5000540;28;20505;-74
2022/12/16 01:12:49;;;;;;;17.63;15.93;;;;;;;-0.61;63.15;100899.25;5004751;28;20034;-75
2022/12/16 01:15:15;;;;;;;14.83;13.07;;;;;;;-0.62;62.79;100893.13;5010006;28;20173;-73
2022/12/16 01:17:41;;;;;;;18.97;15.10;;;;;;;-0.62;62.83;100901.09;4991127;28;20062;-73
2022/12/16 01:20:07;;;;;;;16.77;14.50;;;;;;;-0.62;62.90;100909.06;4995732;28;20041;-75
2022/12/16 01:22:34;;;;;;;29.47;18.13;;;;;;;-0.59;62.90;100913.19;5008343;28;20144;-73
2022/12/16 01:24:59;;;;;;;13.80;12.17;;;;;;;-0.59;63.00;100915.84;4997540;28;20038;-74
2022/12/16 01:27:25;;;;;;;15.57;13.17;;;;;;;-0.59;62.99;100916.69;4997016;28;20057;-73
2022/12/16 01:29:50;;;;;;;20.77;13.90;;;;;;;-0.60;63.17;100909.72;4992468;28;20046;-74
2022/12/16 01:32:16;;;;;;;20.57;17.90;;;;;;;-0.59;63.18;100921.97;4993148;28;20517;-76
2022/12/16 01:34:42;;;;;;;21.17;15.00;;;;;;;-0.59;62.82;100926.47;5008933;28;20026;-74
2022/12/16 01:37:11;;;;;;;18.43;16.63;;;;;;;-0.60;63.19;100920.34;5025554;28;20478;-74
2022/12/16 01:39:37;;;;;;;21.80;17.93;;;;;;;-0.58;62.76;100925.47;4992751;28;20248;-74
2022/12/16 01:42:06;;;;;;;15.87;13.20;;;;;;;-0.58;62.90;100923.66;5009185;28;20483;-69
2022/12/16 01:44:33;;;;;;;;;;;;;;;-0.58;63.25;100936.06;4994973;28;20038;-69
2022/12/16 01:47:03;;;;;;;15.20;13.70;;;;;;;-0.58;63.00;100939.56;4994271;28;19918;-68
2022/12/16 01:49:57;;;;;;;17.93;15.17;;;;;;;-0.57;62.90;100943.88;4995289;28;20030;-70
2022/12/16 01:52:28;;;;;;;20.03;17.20;;;;;;;-0.58;63.10;100946.69;4994619;28;20030;-69
2022/12/16 01:55:01;;;;;;;14.40;13.03;;;;;;;-0.58;62.76;100944.88;4994723;28;20026;-70
2022/12/16 01:57:32;;;;;;;23.63;19.63;;;;;;;-0.58;63.22;100952.84;4994555;28;20032;-73
2022/12/16 02:00:00;;;;;;;29.87;20.07;;;;;;;-0.57;63.16;100957.16;4994594;28;20037;-70
2022/12/16 02:02:26;;;;;;;27.10;18.13;;;;;;;-0.57;62.85;100966.94;4994966;28;20030;-70
2022/12/16 02:07:36;;;;;;;29.80;18.17;;;;;;;-0.55;63.20;100979.03;4994033;28;20049;-69
2022/12/16 02:10:03;;;;;;;22.87;17.37;;;;;;;-0.54;63.29;100971.91;4994434;28;20026;-67
2022/12/16 02:12:58;;;;;;;25.30;20.30;;;;;;;-0.54;63.16;100970.06;4994286;28;20116;-73
2022/12/16 02:15:29;;;;;;;32.67;19.03;;;;;;;-0.54;63.20;100980.69;4994597;28;20036;-69
2022/12/16 02:18:20;;;;;;;27.17;19.93;;;;;;;-0.53;62.90;100973.56;4994243;28;20026;-67
2022/12/16 02:21:06;;;;;;;25.83;21.07;;;;;;;-0.52;63.41;100975.22;4994513;28;20023;-70
2022/12/16 02:23:58;;;;;;;19.07;15.90;;;;;;;-0.54;63.00;100967.41;4994374;28;20026;-70
2022/12/16 02:26:51;;;;;;;25.00;18.37;;;;;;;-0.52;63.37;100969.91;4994003;28;20037;-70
2022/12/16 02:29:31;;;;;;;29.00;19.20;;;;;;;-0.52;63.19;100969.91;4993997;28;20459;-68
2022/12/16 02:32:07;;;;;;;28.47;20.43;;;;;;;-0.53;63.32;100974.41;4994075;28;20410;-68
2022/12/16 02:34:41;;;;;;;31.80;21.63;;;;;;;-0.52;62.98;100978.72;4994004;28;20053;-70
2022/12/16 02:37:27;;;;;;;37.50;17.53;;;;;;;-0.51;63.13;100977.69;4994424;28;20030;-69
2022/12/16 02:40:00;;;;;;;24.03;18.83;;;;;;;-0.50;63.44;100986.50;4994298;28;20038;-68
2022/12/16 02:42:30;;;;;;;30.17;21.00;;;;;;;-0.51;63.35;100983.00;4994499;28;20462;-69
2022/12/16 02:45:16;;;;;;;21.70;15.83;;;;;;;-0.49;63.25;100983.69;4994455;28;20081;-69
2022/12/16 02:47:43;;;;;;;23.83;21.07;;;;;;;-0.49;63.51;100985.50;4992414;28;20030;-68
2022/12/16 02:50:20;;;;;;;38.77;21.30;;;;;;;-0.49;63.24;100978.38;4993954;28;20058;-70
2022/12/16 02:52:46;;;;;;;26.77;21.97;;;;;;;-0.47;63.74;100980.88;4993946;28;20096;-69
2022/12/16 02:55:12;;;;;;;20.23;16.50;;;;;;;-0.47;63.16;100978.22;4994461;28;20467;-69
2022/12/16 02:57:37;;;;;;;27.60;20.83;;;;;;;-0.45;63.45;100982.38;4995119;28;20034;-69
2022/12/16 03:00:06;;;;;;;30.80;19.47;;;;;;;-0.45;63.44;100978.88;4998379;28;20443;-69
2022/12/16 03:03:00;;;;;;;20.33;18.23;;;;;;;-0.44;63.65;100989.31;4997430;28;20052;-73
2022/12/16 03:05:39;;;;;;;32.37;18.93;;;;;;;-0.44;63.59;100989.31;4997950;28;20047;-69
2022/12/16 03:08:08;;;;;;;;;;;;;;;-0.42;63.63;100985.69;4998175;28;20023;-68
2022/12/16 03:10:42;;;;;;;24.73;18.17;;;;;;;-0.44;63.56;100983.19;4997661;28;19916;-73
2022/12/16 03:13:10;;;;;;;24.57;16.83;;;;;;;-0.43;63.41;101000.75;4996421;28;20552;-69
2022/12/16 03:15:38;;;;;;;36.20;21.02;;;;;;;-0.42;63.61;101001.63;4997231;28;20038;-68
2022/12/16 03:18:06;;;;;;;29.00;18.53;;;;;;;-0.42;63.54;101001.63;4997482;28;20034;-69
2022/12/16 03:20:48;;;;;;;33.83;21.90;;;;;;;-0.42;63.70;101010.41;4997456;28;20463;-69
2022/12/16 03:23:19;;;;;;;39.87;22.13;;;;;;;-0.41;63.46;101012.03;4998064;28;20114;-69
2022/12/16 03:25:47;;;;;;;34.80;23.50;;;;;;;-0.40;63.96;101004.91;4997318;28;20096;-69
2022/12/16 03:28:26;;;;;;;29.38;20.63;;;;;;;-0.39;63.80;101010.06;4996966;28;20141;-68
2022/12/16 03:30:57;;;;;;;;;;;;;;;-0.38;63.83;101009.06;4996894;28;20028;-68
2022/12/16 03:33:26;;;;;;;23.93;17.90;;;;;;;-0.40;63.86;101008.41;4997558;28;19953;-69
2022/12/16 03:36:03;;;;;;;45.35;23.13;;;;;;;-0.39;63.73;101011.91;4995807;28;20398;-69
2022/12/16 03:38:32;;;;;;;33.97;20.30;;;;;;;-0.39;64.06;101017.19;4997420;28;20026;-69
2022/12/16 03:40:59;;;;;;;26.85;15.73;;;;;;;-0.38;64.20;101018.84;4996002;28;20446;-69
2022/12/16 03:43:26;;;;;;;25.97;20.43;;;;;;;-0.39;64.12;101014.56;4997011;28;20038;-69
2022/12/16 03:45:56;;;;;;;32.30;21.77;;;;;;;-0.35;64.38;101030.00;4996891;28;20034;-69
2022/12/16 03:48:24;;;;;;;36.53;22.93;;;;;;;-0.35;64.08;101029.13;4997492;28;20519;-69
2022/12/16 03:50:50;;;;;;;40.47;22.47;;;;;;;-0.35;64.54;101030.00;4996848;28;20074;-69
2022/12/16 03:53:15;;;;;;;34.03;20.67;;;;;;;-0.34;64.44;101033.47;5012008;28;20066;-68
2022/12/16 03:55:40;;;;;;;32.77;20.53;;;;;;;-0.34;64.54;101034.28;4996719;28;20037;-69
2022/12/16 03:58:06;;;;;;;27.83;18.67;;;;;;;-0.32;64.67;101034.13;4996550;28;20127;-69
2022/12/16 04:00:32;;;;;;;31.00;20.73;;;;;;;-0.31;64.71;101035.78;4997515;28;20034;-69
2022/12/16 04:02:57;;;;;;;32.57;18.80;;;;;;;-0.32;64.76;101029.66;4997168;28;20026;-69
2022/12/16 04:05:22;;;;;;;18.23;15.20;;;;;;;-0.30;64.84;101043.59;4995314;28;20378;-68
2022/12/16 04:07:48;;;;;;;23.67;17.07;;;;;;;-0.30;64.86;101048.91;4996590;28;20034;-67
2022/12/16 04:10:13;;;;;;;16.83;14.97;;;;;;;-0.30;64.49;101054.22;5011458;28;20117;-67
2022/12/16 04:27:23;;;;;;;20.40;17.57;;;;;;;-0.28;64.56;101062.00;4996327;28;20454;-70
2022/12/16 04:29:19;;;;;;;34.03;21.10;;;;;;;-0.28;64.89;101060.19;4996193;28;20367;-69
2022/12/16 04:31:44;;;;;;;31.63;18.73;;;;;;;-0.26;65.08;101067.97;4996119;28;20030;-69
2022/12/16 04:34:25;;;;;;;16.23;14.03;;;;;;;-0.25;64.67;101069.66;4996192;28;20074;-69
